Time;durP1;ratioP1;P1;durP2;ratioP2;P2;SDS_P1;SDS_P2;PMS_P1;PMS_P2;Temp;Humidity;BMP_temperature;BMP_pressure;BME280_temperature;BME280_humidity;BME280_pressure;Samples;Min_cycle;Max_cycle;Signal;HPM_P1;HPM_P2
2022/06/23 00:01:12;;;;;;;4.35;2.85;;;14.10;99.90;;;;;;5091518;28;20040;-76
2022/06/23 00:03:38;;;;;;;4.05;2.80;;;14.10;99.90;;;;;;5091598;28;20054;-75
2022/06/23 00:06:07;;;;;;;4.20;2.90;;;14.10;99.90;;;;;;5091484;28;20062;-74
2022/06/23 00:08:44;;;;;;;4.10;2.80;;;14.00;99.90;;;;;;5091206;28;20569;-75
2022/06/23 00:11:23;;;;;;;3.90;2.83;;;14.00;99.90;;;;;;5073760;28;20079;-75
2022/06/23 00:13:50;;;;;;;4.05;2.80;;;13.90;99.90;;;;;;5091005;28;20487;-75
2022/06/23 00:16:27;;;;;;;3.70;2.67;;;13.90;99.90;;;;;;5091531;28;20086;-75
2022/06/23 00:18:53;;;;;;;4.00;3.00;;;13.90;99.90;;;;;;5073464;28;20426;-75
2022/06/23 00:21:24;;;;;;;4.65;3.38;;;13.80;99.90;;;;;;5091355;28;20052;-75
2022/06/23 00:24:03;;;;;;;3.95;2.90;;;13.80;99.90;;;;;;5091076;28;20048;-75
2022/06/23 00:26:33;;;;;;;3.83;2.70;;;13.80;99.90;;;;;;5091206;28;20553;-75
2022/06/23 00:29:04;;;;;;;4.25;2.78;;;13.80;99.90;;;;;;5090663;28;20496;-75
2022/06/23 00:31:55;;;;;;;5.55;3.05;;;13.70;99.90;;;;;;5091258;28;20054;-75
2022/06/23 00:34:24;;;;;;;4.72;3.05;;;13.70;99.90;;;;;;5091353;28;20090;-75
2022/06/23 00:37:00;;;;;;;4.90;3.10;;;13.60;99.90;;;;;;5091097;28;20043;-75
2022/06/23 00:39:31;;;;;;;;;;;13.60;99.90;;;;;;5090938;28;20105;-75
2022/06/23 00:41:57;;;;;;;4.20;3.05;;;13.50;99.90;;;;;;5091120;28;19916;-75
2022/06/23 00:44:53;;;;;;;5.03;2.72;;;13.50;99.90;;;;;;5091271;28;20368;-75
2022/06/23 00:47:43;;;;;;;5.25;2.60;;;13.50;99.90;;;;;;5093586;28;20044;-76
2022/06/23 00:50:11;;;;;;;4.40;2.92;;;13.40;99.90;;;;;;5095287;28;20475;-76
2022/06/23 00:52:56;;;;;;;4.22;2.80;;;13.40;99.90;;;;;;5095261;28;20043;-75
2022/06/23 00:56:05;;;;;;;4.90;2.85;;;13.40;99.90;;;;;;5094903;28;20047;-76
2022/06/23 00:58:37;;;;;;;3.78;2.53;;;13.40;99.90;;;;;;5077074;28;20092;-74
2022/06/23 01:01:12;;;;;;;3.42;2.60;;;13.30;99.90;;;;;;5095015;28;20087;-74
2022/06/23 01:03:49;;;;;;;4.20;3.00;;;13.30;99.90;;;;;;5077051;28;20094;-75
2022/06/23 01:06:26;;;;;;;3.67;2.60;;;13.30;99.90;;;;;;5077580;28;20051;-75
2022/06/23 01:09:15;;;;;;;3.72;2.80;;;13.30;99.90;;;;;;5094427;28;20109;-75
2022/06/23 01:12:10;;;;;;;4.20;3.00;;;13.30;99.90;;;;;;5016632;28;20040;-75
2022/06/23 01:15:10;;;;;;;4.47;2.88;;;13.30;99.90;;;;;;5052948;28;20479;-75
2022/06/23 01:18:11;;;;;;;4.85;2.75;;;13.30;99.90;;;;;;4992541;28;20121;-75
2022/06/23 01:20:51;;;;;;;4.82;2.88;;;13.40;99.90;;;;;;5091009;28;20394;-75
2022/06/23 01:23:35;;;;;;;4.13;2.67;;;13.30;99.90;;;;;;5094260;28;20475;-76
2022/06/23 01:26:32;;;;;;;3.80;2.72;;;13.30;99.90;;;;;;5094666;28;20044;-75
2022/06/23 01:29:04;;;;;;;3.75;2.80;;;13.30;99.90;;;;;;5094392;28;20422;-75
2022/06/23 01:31:42;;;;;;;4.30;2.92;;;13.30;99.90;;;;;;5094263;28;20044;-75
2022/06/23 01:34:36;;;;;;;4.55;3.30;;;13.20;99.90;;;;;;5094124;28;20494;-75
2022/06/23 01:37:13;;;;;;;4.47;3.20;;;13.20;99.90;;;;;;5094604;28;20040;-75
2022/06/23 01:40:01;;;;;;;3.63;2.60;;;13.10;99.90;;;;;;5093848;28;20040;-75
2022/06/23 01:42:45;;;;;;;4.18;2.80;;;13.10;99.90;;;;;;5076315;28;20036;-76
2022/06/23 01:45:43;;;;;;;5.32;2.90;;;13.10;99.90;;;;;;5094306;28;20118;-75
2022/06/23 01:48:13;;;;;;;4.78;3.15;;;13.00;99.90;;;;;;5094205;28;20090;-75
2022/06/23 01:50:51;;;;;;;5.10;3.30;;;13.00;99.90;;;;;;5094128;28;20115;-75
2022/06/23 01:53:16;;;;;;;5.07;3.03;;;12.90;99.90;;;;;;5093981;28;20131;-75
2022/06/23 01:56:07;;;;;;;4.95;3.17;;;12.90;99.90;;;;;;5076100;28;20119;-75
2022/06/23 01:58:47;;;;;;;5.40;3.28;;;12.90;99.90;;;;;;5093909;28;20091;-75
2022/06/23 02:01:34;;;;;;;4.78;3.40;;;12.70;99.90;;;;;;5093995;28;20365;-76
2022/06/23 02:04:16;;;;;;;5.72;3.13;;;12.60;99.90;;;;;;5093886;28;20059;-76
2022/06/23 02:06:57;;;;;;;4.32;3.08;;;12.50;99.90;;;;;;5093833;28;20048;-75
2022/06/23 02:09:45;;;;;;;4.47;3.33;;;12.50;99.90;;;;;;5093261;28;20328;-75
2022/06/23 02:12:41;;;;;;;5.25;3.30;;;12.50;99.90;;;;;;5072340;28;20082;-75
2022/06/23 02:15:30;;;;;;;4.25;3.15;;;12.50;99.90;;;;;;5080074;28;20052;-75
2022/06/23 02:18:12;;;;;;;4.60;3.03;;;12.40;99.90;;;;;;5085656;28;20496;-75
2022/06/23 02:20:43;;;;;;;5.93;3.38;;;12.40;99.90;;;;;;5093722;28;20051;-75
2022/06/23 02:23:18;;;;;;;5.25;3.30;;;12.40;99.90;;;;;;5093361;28;20039;-75
2022/06/23 02:25:52;;;;;;;6.27;3.20;;;12.40;99.90;;;;;;5093212;28;20048;-75
2022/06/23 02:28:32;;;;;;;6.85;4.13;;;12.30;99.90;;;;;;5075420;28;20044;-76
2022/06/23 02:31:13;;;;;;;5.20;3.60;;;12.40;99.90;;;;;;5093432;28;20067;-75
2022/06/23 02:33:57;;;;;;;5.22;3.45;;;12.30;99.90;;;;;;5093041;28;20072;-76
2022/06/23 02:36:54;;;;;;;5.80;3.83;;;12.30;99.90;;;;;;5093030;28;20483;-76
2022/06/23 02:39:29;;;;;;;;;;;12.40;99.90;;;;;;5074774;28;20040;-76
2022/06/23 02:42:01;;;;;;;4.32;3.42;;;12.30;99.90;;;;;;5095113;28;19920;-76
2022/06/23 02:44:33;;;;;;;5.50;3.45;;;12.30;99.90;;;;;;5095717;28;20225;-76
2022/06/23 02:47:01;;;;;;;6.97;3.72;;;12.40;99.90;;;;;;5093976;28;20766;-76
2022/06/23 02:49:52;;;;;;;6.35;3.70;;;12.40;99.90;;;;;;5092770;28;20127;-76
2022/06/23 02:52:35;;;;;;;5.63;3.85;;;12.40;99.90;;;;;;5093037;28;20484;-76
2022/06/23 02:55:09;;;;;;;6.80;3.95;;;12.40;99.90;;;;;;5092963;28;20416;-76
2022/06/23 02:57:49;;;;;;;7.95;3.88;;;12.40;99.90;;;;;;5092968;28;20055;-76
2022/06/23 03:00:44;;;;;;;5.30;3.75;;;12.30;99.90;;;;;;5092419;28;20155;-76
2022/06/23 03:03:29;;;;;;;5.53;3.70;;;12.20;99.90;;;;;;5092789;28;20093;-76
2022/06/23 03:06:06;;;;;;;9.20;4.07;;;12.20;99.90;;;;;;5074793;28;20052;-76
2022/06/23 03:08:35;;;;;;;7.18;4.10;;;12.20;99.90;;;;;;5091860;28;20506;-76
2022/06/23 03:11:18;;;;;;;6.63;4.18;;;12.20;99.90;;;;;;5091704;28;20080;-76
2022/06/23 03:14:02;;;;;;;8.20;4.05;;;12.20;99.90;;;;;;5092431;28;20387;-76
2022/06/23 03:16:34;;;;;;;7.05;4.30;;;12.20;99.90;;;;;;5092602;28;20040;-76
2022/06/23 03:19:12;;;;;;;6.93;3.90;;;12.20;99.90;;;;;;5074418;28;20055;-76
2022/06/23 03:21:49;;;;;;;8.95;3.55;;;12.20;99.90;;;;;;5074134;28;20486;-76
2022/06/23 03:24:25;;;;;;;5.55;3.50;;;12.10;99.90;;;;;;5092286;28;20166;-76
2022/06/23 03:27:00;;;;;;;5.38;3.33;;;12.10;99.90;;;;;;5089064;28;20059;-77
2022/06/23 03:29:40;;;;;;;4.78;3.65;;;12.10;99.90;;;;;;5091261;28;20064;-76
2022/06/23 03:32:28;;;;;;;6.10;3.40;;;12.10;99.90;;;;;;5091027;28;20138;-76
2022/06/23 03:35:01;;;;;;;5.10;3.28;;;12.10;99.90;;;;;;5090393;28;20103;-76
2022/06/23 03:37:42;;;;;;;5.70;3.60;;;12.00;99.90;;;;;;5092224;28;20161;-76
2022/06/23 03:43:33;;;;;;;8.18;3.97;;;12.10;99.90;;;;;;5090547;28;20051;-77
2022/06/23 03:46:26;;;;;;;5.20;3.50;;;12.10;99.90;;;;;;5073942;28;20051;-76
2022/06/23 03:49:21;;;;;;;5.78;4.00;;;12.10;99.90;;;;;;5091705;28;20477;-76
2022/06/23 03:51:58;;;;;;;5.15;3.42;;;12.10;99.90;;;;;;5044331;28;20534;-76
2022/06/23 03:54:28;;;;;;;5.57;3.97;;;12.10;99.90;;;;;;5091867;28;20048;-76
2022/06/23 03:57:03;;;;;;;6.10;3.80;;;12.10;99.90;;;;;;5091629;28;20054;-76
2022/06/23 03:59:34;;;;;;;5.60;3.75;;;12.10;99.90;;;;;;5053827;28;20200;-76
2022/06/23 04:02:17;;;;;;;6.13;3.50;;;12.10;99.90;;;;;;5086607;28;20120;-76
2022/06/23 04:05:10;;;;;;;5.03;3.60;;;12.20;99.90;;;;;;5084223;28;20050;-76
2022/06/23 04:08:00;;;;;;;7.57;3.90;;;12.20;99.90;;;;;;5091335;28;20568;-76
2022/06/23 04:10:39;;;;;;;6.88;4.22;;;12.30;99.90;;;;;;5091203;28;20055;-76
2022/06/23 04:13:14;;;;;;;6.10;4.20;;;12.30;99.90;;;;;;5091590;28;20115;-76
2022/06/23 04:15:42;;;;;;;7.75;4.13;;;12.40;99.90;;;;;;5091441;28;20077;-76
2022/06/23 04:18:14;;;;;;;6.28;4.53;;;12.40;99.90;;;;;;5091564;28;20040;-76
2022/06/23 04:20:55;;;;;;;7.20;4.30;;;12.40;99.90;;;;;;5090909;28;20048;-76
2022/06/23 04:23:28;;;;;;;8.25;4.43;;;12.50;99.90;;;;;;5090772;28;20040;-76
2022/06/23 04:26:11;;;;;;;6.30;4.03;;;12.50;99.90;;;;;;5091413;28;20143;-75
2022/06/23 04:28:46;;;;;;;7.30;4.50;;;12.50;99.90;;;;;;5091195;28;20468;-76
2022/06/23 04:31:18;;;;;;;6.28;4.15;;;12.60;99.90;;;;;;5091371;28;20114;-76
2022/06/23 04:33:46;;;;;;;7.55;4.70;;;12.60;99.90;;;;;;5091067;28;20092;-76
2022/06/23 04:36:43;;;;;;;6.93;4.40;;;12.70;99.90;;;;;;5091310;28;20082;-75
2022/06/23 04:39:26;;;;;;;6.70;4.50;;;12.80;99.90;;;;;;5089313;28;20059;-75
2022/06/23 04:42:04;;;;;;;6.38;4.35;;;12.80;99.90;;;;;;5072973;28;20093;-75
2022/06/23 04:44:33;;;;;;;6.85;4.25;;;12.90;99.90;;;;;;5073114;28;20463;-75
2022/06/23 04:47:06;;;;;;;6.75;4.85;;;13.00;99.90;;;;;;5090808;28;20486;-76
2022/06/23 04:50:01;;;;;;;8.20;5.20;;;13.10;99.90;;;;;;5072739;28;20157;-76
2022/06/23 04:52:40;;;;;;;7.75;5.05;;;13.20;99.90;;;;;;5091082;28;20493;-75
2022/06/23 04:55:18;;;;;;;7.10;4.82;;;13.30;99.90;;;;;;5037356;28;20498;-75
2022/06/23 04:57:59;;;;;;;7.78;5.30;;;13.40;99.90;;;;;;5076669;28;20105;-76
2022/06/23 05:00:44;;;;;;;6.72;4.78;;;13.50;99.90;;;;;;5091010;28;20040;-76
2022/06/23 05:03:27;;;;;;;7.03;4.97;;;13.70;99.90;;;;;;5090895;28;20055;-76
2022/06/23 05:06:04;;;;;;;6.57;4.75;;;13.80;99.90;;;;;;5090987;28;20145;-76
2022/06/23 05:08:33;;;;;;;7.00;4.97;;;13.90;99.90;;;;;;5090900;28;20040;-76
2022/06/23 05:11:06;;;;;;;9.93;5.13;;;14.00;99.90;;;;;;5071920;28;20463;-76
2022/06/23 05:13:48;;;;;;;8.50;5.55;;;14.20;99.90;;;;;;5090824;28;20044;-76
2022/06/23 05:16:28;;;;;;;8.57;5.00;;;14.30;99.90;;;;;;5072964;28;20040;-77
2022/06/23 05:18:58;;;;;;;7.60;5.55;;;14.50;99.90;;;;;;5090913;28;20089;-76
2022/06/23 05:21:30;;;;;;;7.15;4.70;;;14.60;99.90;;;;;;5073058;28;20092;-76
2022/06/23 05:24:08;;;;;;;7.20;5.28;;;14.70;99.90;;;;;;5090654;28;20063;-76
2022/06/23 05:26:46;;;;;;;7.10;5.20;;;14.90;99.90;;;;;;5090978;28;20085;-76
2022/06/23 05:29:46;;;;;;;8.35;5.88;;;15.00;99.90;;;;;;5090872;28;20044;-76
2022/06/23 05:32:48;;;;;;;7.22;5.45;;;15.20;99.90;;;;;;5090947;28;20058;-75
2022/06/23 05:35:35;;;;;;;6.85;5.07;;;15.40;99.90;;;;;;5069806;28;20171;-76
2022/06/23 05:38:34;;;;;;;6.82;5.28;;;15.50;99.90;;;;;;5094188;28;20078;-76
2022/06/23 05:41:13;;;;;;;8.68;5.65;;;15.70;99.90;;;;;;5038824;28;20102;-76
2022/06/23 05:43:41;;;;;;;6.20;5.10;;;15.80;99.90;;;;;;5092842;28;20040;-75
2022/06/23 05:46:14;;;;;;;8.48;5.50;;;15.90;99.90;;;;;;5072871;28;20495;-76
2022/06/23 05:48:42;;;;;;;8.27;5.80;;;16.10;99.90;;;;;;5031175;28;20070;-77
2022/06/23 05:51:10;;;;;;;10.35;5.80;;;16.20;99.90;;;;;;5073951;28;20055;-76
2022/06/23 05:53:40;;;;;;;7.47;5.65;;;16.30;99.90;;;;;;5078457;28;20036;-76
2022/06/23 05:56:20;;;;;;;8.60;5.45;;;16.50;99.90;;;;;;5093802;28;20070;-76
2022/06/23 05:59:08;;;;;;;8.15;5.75;;;16.60;99.90;;;;;;5094051;28;20430;-77
2022/06/23 06:01:40;;;;;;;8.13;6.03;;;16.70;99.90;;;;;;5094051;28;20119;-76
2022/06/23 06:04:13;;;;;;;9.38;5.50;;;16.70;99.90;;;;;;5093835;28;20072;-76
2022/06/23 06:06:39;;;;;;;7.90;5.82;;;16.90;99.90;;;;;;5093785;28;20123;-68
2022/06/23 06:11:58;;;;;;;8.13;6.55;;;17.20;99.90;;;;;;5093744;28;20541;-68
2022/06/23 06:14:27;;;;;;;6.90;5.70;;;17.30;99.90;;;;;;5093524;28;20043;-68
2022/06/23 06:16:56;;;;;;;8.68;5.85;;;17.40;99.90;;;;;;5075040;28;20047;-68
2022/06/23 06:19:24;;;;;;;7.97;6.13;;;17.60;99.90;;;;;;5074687;28;20437;-68
2022/06/23 06:21:54;;;;;;;7.55;5.53;;;17.60;99.90;;;;;;5093029;28;20075;-68
2022/06/23 06:24:29;;;;;;;7.93;5.82;;;17.80;99.90;;;;;;5090281;28;20322;-68
2022/06/23 06:26:56;;;;;;;7.15;5.82;;;17.90;99.90;;;;;;5092795;28;20067;-68
2022/06/23 06:29:24;;;;;;;7.78;6.03;;;18.00;99.90;;;;;;5092927;28;20314;-68
2022/06/23 06:32:26;;;;;;;7.85;5.97;;;18.10;99.90;;;;;;5093350;28;20044;-68
2022/06/23 06:35:01;;;;;;;7.20;5.68;;;18.30;99.90;;;;;;5091568;28;20063;-69
2022/06/23 06:37:32;;;;;;;6.70;5.15;;;18.40;99.90;;;;;;5093124;28;20032;-69
2022/06/23 06:40:03;;;;;;;9.20;6.10;;;18.60;99.90;;;;;;5092743;28;20068;-69
2022/06/23 06:42:42;;;;;;;7.85;5.85;;;18.70;99.90;;;;;;5093043;28;20102;-69
2022/06/23 06:45:12;;;;;;;8.05;5.68;;;18.80;99.90;;;;;;5092083;28;20090;-68
2022/06/23 06:47:40;;;;;;;8.07;5.53;;;18.90;99.90;;;;;;5092830;28;20499;-69
2022/06/23 06:50:31;;;;;;;7.95;5.45;;;19.00;99.90;;;;;;5092950;28;20117;-69
2022/06/23 06:52:59;;;;;;;9.32;5.90;;;19.10;99.90;;;;;;5092873;28;20106;-68
2022/06/23 06:55:26;;;;;;;8.05;5.20;;;19.20;99.90;;;;;;5092804;28;20048;-69
2022/06/23 06:57:58;;;;;;;8.43;5.13;;;19.30;99.90;;;;;;5092466;28;20044;-68
2022/06/23 07:00:48;;;;;;;6.95;4.97;;;19.40;99.90;;;;;;5092455;28;20054;-69
2022/06/23 07:03:16;;;;;;;7.65;4.40;;;19.60;99.90;;;;;;5092526;28;20035;-68
2022/06/23 07:06:21;;;;;;;6.63;4.63;;;19.70;99.90;;;;;;5092593;28;20123;-69
2022/06/23 07:09:12;;;;;;;6.97;4.65;;;19.80;99.90;;;;;;5031965;28;20051;-69
2022/06/23 07:11:55;;;;;;;5.88;4.25;;;19.90;99.90;;;;;;5091810;28;20498;-69
2022/06/23 07:14:33;;;;;;;5.88;4.30;;;20.00;99.90;;;;;;5092258;28;20379;-69
2022/06/23 07:17:11;;;;;;;7.57;4.05;;;20.10;99.90;;;;;;5089697;28;20073;-69
2022/06/23 07:19:39;;;;;;;6.60;3.85;;;20.20;99.90;;;;;;5091819;28;20092;-69
2022/06/23 07:22:15;;;;;;;5.07;3.92;;;20.30;99.90;;;;;;5091395;28;20040;-69
2022/06/23 07:24:49;;;;;;;5.55;3.85;;;20.50;99.90;;;;;;5083720;28;20055;-68
2022/06/23 07:27:30;;;;;;;5.45;3.90;;;20.60;99.90;;;;;;5079490;28;20032;-68
2022/06/23 07:30:18;;;;;;;6.07;4.10;;;20.70;99.90;;;;;;5082234;28;20396;-70
2022/06/23 07:32:57;;;;;;;5.68;3.97;;;20.80;99.90;;;;;;5088578;28;20488;-68
2022/06/23 07:35:29;;;;;;;6.72;4.10;;;20.90;99.90;;;;;;5084507;28;20048;-68
2022/06/23 07:38:04;;;;;;;4.03;3.38;;;21.00;99.90;;;;;;5086327;28;20052;-68
2022/06/23 07:40:36;;;;;;;5.47;3.55;;;21.10;99.90;;;;;;5061282;28;20044;-68
2022/06/23 07:43:07;;;;;;;5.85;3.42;;;21.20;99.90;;;;;;5046190;28;20127;-69
2022/06/23 07:45:46;;;;;;;5.72;3.60;;;21.30;99.90;;;;;;5064157;28;20137;-69
2022/06/23 07:48:11;;;;;;;5.43;3.67;;;21.40;99.90;;;;;;5082685;28;20402;-69
2022/06/23 07:50:37;;;;;;;6.82;3.55;;;21.50;99.90;;;;;;5074783;28;20058;-68
2022/06/23 07:53:04;;;;;;;4.45;3.47;;;21.60;99.90;;;;;;5056924;28;20134;-69
2022/06/23 07:55:41;;;;;;;5.70;3.30;;;21.80;99.90;;;;;;5071811;28;20127;-68
2022/06/23 07:58:08;;;;;;;4.25;3.10;;;21.90;99.90;;;;;;5088146;28;20491;-69
2022/06/23 08:00:40;;;;;;;5.47;3.30;;;22.00;99.90;;;;;;5084921;28;20094;-69
2022/06/23 08:03:16;;;;;;;5.25;3.67;;;22.10;99.90;;;;;;5074162;28;20040;-69
2022/06/23 08:05:51;;;;;;;5.70;3.25;;;22.20;99.90;;;;;;5077675;28;20598;-69
2022/06/23 08:08:21;;;;;;;4.38;3.25;;;22.20;99.90;;;;;;5077757;28;20079;-69
2022/06/23 08:12:52;;;;;;;4.53;2.90;;;22.30;99.90;;;;;;5082863;28;20043;-68
2022/06/23 08:13:38;;;;;;;3.45;3.13;;;22.40;99.90;;;;;;5078462;28;20048;-69
2022/06/23 08:19:10;;;;;;;4.03;3.03;;;22.60;99.90;;;;;;5074724;28;20055;-69
2022/06/23 08:21:53;;;;;;;5.70;3.15;;;22.70;99.90;;;;;;5071061;28;20053;-70
2022/06/23 08:24:23;;;;;;;5.03;2.90;;;22.80;99.90;;;;;;5080488;28;20048;-68
2022/06/23 08:26:58;;;;;;;5.78;2.92;;;22.80;99.90;;;;;;5091196;28;20416;-69
2022/06/23 08:29:30;;;;;;;5.23;2.97;;;23.00;99.90;;;;;;5091037;28;20045;-69
2022/06/23 08:31:58;;;;;;;4.18;2.80;;;23.10;99.90;;;;;;5090605;28;20465;-68
2022/06/23 08:34:24;;;;;;;4.75;2.67;;;23.20;99.90;;;;;;5072275;28;20048;-68
2022/06/23 08:36:55;;;;;;;3.72;2.80;;;23.30;99.90;;;;;;5090567;28;20054;-69
2022/06/23 08:39:32;;;;;;;5.32;2.53;;;23.40;99.90;;;;;;5090103;28;20048;-69
2022/06/23 08:42:22;;;;;;;6.45;2.45;;;23.50;99.90;;;;;;5072707;28;20063;-68
2022/06/23 08:45:13;;;;;;;4.00;2.70;;;23.60;99.90;;;;;;5091070;28;20097;-68
2022/06/23 08:48:04;;;;;;;4.22;2.78;;;23.70;99.90;;;;;;5090265;28;20527;-69
2022/06/23 08:50:43;;;;;;;4.55;2.95;;;23.90;99.90;;;;;;5090953;28;20412;-68
2022/06/23 08:53:42;;;;;;;4.88;2.70;;;24.00;99.90;;;;;;5090285;28;20052;-70
2022/06/23 08:56:21;;;;;;;3.42;2.33;;;24.00;99.90;;;;;;5090887;28;20052;-69
2022/06/23 08:58:57;;;;;;;5.55;2.25;;;24.10;99.90;;;;;;5090891;28;20396;-69
2022/06/23 09:01:27;;;;;;;;;;;24.30;99.90;;;;;;5090707;28;20063;-69
2022/06/23 09:03:58;;;;;;;5.68;2.33;;;24.30;99.90;;;;;;5090713;28;20396;-69
2022/06/23 09:06:50;;;;;;;4.25;2.35;;;24.40;99.90;;;;;;5090756;28;20047;-70
2022/06/23 09:09:18;;;;;;;4.00;2.40;;;24.50;99.90;;;;;;5062928;28;20105;-72
2022/06/23 09:11:59;;;;;;;4.10;2.28;;;24.60;99.90;;;;;;5076833;28;20052;-69
2022/06/23 09:14:54;;;;;;;3.40;2.30;;;24.70;99.90;;;;;;5094782;28;20437;-69
2022/06/23 09:17:44;;;;;;;4.30;2.70;;;24.80;99.90;;;;;;5094391;28;20056;-69
2022/06/23 09:20:33;;;;;;;2.97;2.30;;;24.80;99.90;;;;;;5076882;28;20101;-69
2022/06/23 09:23:01;;;;;;;3.03;2.25;;;24.90;99.90;;;;;;5094659;28;20063;-68
2022/06/23 09:25:30;;;;;;;3.50;2.50;;;25.00;99.90;;;;;;5094580;28;20377;-68
2022/06/23 09:28:15;;;;;;;4.07;2.53;;;25.10;99.90;;;;;;5076690;28;20456;-69
2022/06/23 09:30:59;;;;;;;3.13;2.03;;;25.20;99.90;;;;;;5094757;28;20134;-69
2022/06/23 09:33:39;;;;;;;3.67;2.05;;;25.40;99.90;;;;;;5094322;28;20054;-68
2022/06/23 09:36:39;;;;;;;3.83;2.17;;;25.50;99.90;;;;;;5094587;28;20514;-69
2022/06/23 09:39:23;;;;;;;3.83;2.22;;;25.60;99.90;;;;;;5094213;28;20453;-69
2022/06/23 09:41:54;;;;;;;4.03;2.10;;;25.70;99.90;;;;;;5094260;28;20052;-69
2022/06/23 09:45:17;;;;;;;2.88;2.00;;;25.70;99.90;;;;;;5094319;28;20047;-70
2022/06/23 09:48:19;;;;;;;3.30;2.00;;;25.70;99.90;;;;;;4991975;28;20054;-69
2022/06/23 09:51:03;;;;;;;3.45;1.92;;;25.70;99.90;;;;;;4992096;28;20133;-69
2022/06/23 09:53:56;;;;;;;4.68;2.47;;;25.80;99.90;;;;;;5090452;28;20514;-69
2022/06/23 09:56:39;;;;;;;4.32;2.20;;;25.90;99.90;;;;;;5094042;28;20105;-69
2022/06/23 09:59:44;;;;;;;3.13;2.20;;;26.00;99.90;;;;;;5093965;28;20094;-69
2022/06/23 10:02:44;;;;;;;3.15;1.92;;;26.00;99.90;;;;;;5093920;28;20136;-69
2022/06/23 10:05:33;;;;;;;2.40;1.92;;;26.10;99.90;;;;;;5075923;28;20064;-69
2022/06/23 10:08:20;;;;;;;3.22;2.08;;;26.10;99.90;;;;;;5093463;28;20105;-70
2022/06/23 10:11:14;;;;;;;2.75;2.10;;;26.10;99.90;;;;;;5093605;28;20056;-69
2022/06/23 10:13:46;;;;;;;2.90;1.90;;;26.20;99.90;;;;;;5093819;28;20050;-69
2022/06/23 10:16:35;;;;;;;4.18;2.25;;;26.20;99.90;;;;;;5093655;28;20040;-69
2022/06/23 10:19:32;;;;;;;2.72;1.80;;;26.20;99.90;;;;;;5092398;28;20055;-70
2022/06/23 10:22:33;;;;;;;3.03;1.98;;;26.30;99.90;;;;;;5093420;28;20055;-69
2022/06/23 10:25:31;;;;;;;4.60;2.10;;;26.40;99.90;;;;;;4991171;28;20443;-69
2022/06/23 10:28:22;;;;;;;2.30;1.92;;;26.50;99.90;;;;;;5093547;28;20036;-69
2022/06/23 10:31:07;;;;;;;3.58;1.80;;;26.50;99.90;;;;;;5093022;28;20051;-70
2022/06/23 10:34:06;;;;;;;2.45;1.98;;;26.60;99.90;;;;;;5075290;28;20406;-69
2022/06/23 10:37:14;;;;;;;2.63;1.70;;;26.70;99.90;;;;;;5058390;28;20131;-70
2022/06/23 10:40:07;;;;;;;2.88;1.70;;;26.70;99.90;;;;;;4990620;28;20486;-70
2022/06/23 10:42:42;;;;;;;2.35;1.60;;;26.70;99.90;;;;;;5089703;28;20066;-69
2022/06/23 10:45:46;;;;;;;3.15;1.70;;;26.80;99.90;;;;;;5093125;28;20054;-69
2022/06/23 10:48:38;;;;;;;2.90;1.80;;;26.80;99.90;;;;;;5092940;28;20389;-69
2022/06/23 10:51:37;;;;;;;2.50;1.50;;;26.80;99.90;;;;;;5092715;28;20127;-69
2022/06/23 10:54:37;;;;;;;3.40;2.00;;;26.90;99.90;;;;;;5092679;28;20123;-69
2022/06/23 10:57:34;;;;;;;4.53;1.88;;;27.00;99.90;;;;;;5074482;28;20051;-69
2022/06/23 11:00:15;;;;;;;3.35;1.70;;;27.00;99.90;;;;;;5091578;28;20502;-68
2022/06/23 11:02:55;;;;;;;4.72;2.05;;;27.00;99.90;;;;;;5088537;28;20483;-69
2022/06/23 11:05:20;;;;;;;2.75;1.80;;;27.10;99.90;;;;;;5091949;28;20044;-69
2022/06/23 11:08:01;;;;;;;5.18;2.00;;;27.10;99.90;;;;;;5092571;28;20067;-69
2022/06/23 11:11:04;;;;;;;3.13;2.10;;;27.10;99.90;;;;;;5091766;28;20063;-68
2022/06/23 11:13:59;;;;;;;2.90;2.00;;;27.10;99.90;;;;;;5091827;28;20094;-69
2022/06/23 11:17:09;;;;;;;2.08;1.80;;;27.10;99.90;;;;;;5091502;28;20056;-70
2022/06/23 11:20:01;;;;;;;3.15;1.70;;;27.20;99.90;;;;;;4995592;28;20412;-70
2022/06/23 11:22:33;;;;;;;2.97;1.58;;;27.30;99.90;;;;;;5092147;28;20109;-69
2022/06/23 11:25:24;;;;;;;2.10;1.70;;;27.40;99.90;;;;;;5076406;28;20131;-70
2022/06/23 11:28:21;;;;;;;3.55;1.52;;;27.50;99.90;;;;;;5071351;28;20044;-70
2022/06/23 11:31:20;;;;;;;2.97;1.77;;;27.60;99.90;;;;;;5068615;28;20059;-68
2022/06/23 11:34:11;;;;;;;2.80;1.58;;;27.60;99.90;;;;;;5081708;28;20058;-69
2022/06/23 11:37:05;;;;;;;2.50;1.80;;;27.70;99.90;;;;;;5071661;28;20074;-68
2022/06/23 11:39:49;;;;;;;2.92;1.77;;;27.80;99.90;;;;;;5036585;28;20135;-67
2022/06/23 11:42:32;;;;;;;2.20;1.50;;;27.80;99.90;;;;;;5077663;28;20049;-68
2022/06/23 11:45:39;;;;;;;2.70;1.95;;;27.90;99.90;;;;;;5071639;28;20129;-67
2022/06/23 11:48:33;;;;;;;3.25;1.73;;;27.90;99.90;;;;;;5071173;28;20401;-68
2022/06/23 11:51:28;;;;;;;2.40;1.60;;;28.00;99.90;;;;;;5070183;28;20106;-68
2022/06/23 11:53:57;;;;;;;4.20;1.85;;;28.00;99.90;;;;;;5071265;28;20056;-70
2022/06/23 11:56:50;;;;;;;2.28;1.60;;;28.10;99.90;;;;;;5070854;28;20144;-67
2022/06/23 11:59:31;;;;;;;2.80;1.80;;;28.10;99.90;;;;;;5053710;28;20045;-69
2022/06/23 12:01:57;;;;;;;2.92;1.60;;;28.10;99.90;;;;;;5071287;28;20048;-69
2022/06/23 12:04:34;;;;;;;2.47;1.77;;;28.20;99.90;;;;;;5070972;28;20074;-68
2022/06/23 12:07:15;;;;;;;2.97;1.98;;;28.30;99.90;;;;;;5071010;28;20103;-68
2022/06/23 12:09:52;;;;;;;2.85;1.80;;;28.30;99.90;;;;;;5069443;28;20044;-67
2022/06/23 12:12:18;;;;;;;3.15;1.70;;;28.30;99.90;;;;;;5070964;28;20044;-67
2022/06/23 12:14:44;;;;;;;3.40;1.73;;;28.40;99.90;;;;;;5053258;28;20489;-67
2022/06/23 12:17:12;;;;;;;2.22;1.58;;;28.40;99.90;;;;;;5070622;28;20513;-68
2022/06/23 12:20:06;;;;;;;2.67;1.70;;;28.50;99.90;;;;;;5070750;28;20091;-69
2022/06/23 12:22:42;;;;;;;3.10;1.80;;;28.60;99.90;;;;;;5071004;28;20097;-67
2022/06/23 12:25:32;;;;;;;3.00;1.60;;;28.50;99.90;;;;;;5073259;28;20052;-68
2022/06/23 12:28:20;;;;;;;2.30;1.73;;;28.60;99.40;;;;;;5091097;28;20438;-68
2022/06/23 12:31:26;;;;;;;3.47;2.00;;;28.60;98.90;;;;;;5091294;28;20208;-68
2022/06/23 12:34:27;;;;;;;2.20;1.70;;;28.70;99.80;;;;;;5090746;28;20055;-68
2022/06/23 12:37:23;;;;;;;2.70;1.90;;;28.80;99.00;;;;;;5091002;28;20655;-67
2022/06/23 12:40:05;;;;;;;2.25;1.80;;;28.80;98.40;;;;;;5090631;28;20046;-67
2022/06/23 12:42:36;;;;;;;3.30;1.90;;;28.80;97.80;;;;;;5091919;28;20084;-68
2022/06/23 12:45:31;;;;;;;2.75;1.70;;;28.80;97.10;;;;;;5095184;28;20063;-68
2022/06/23 12:48:22;;;;;;;2.95;1.77;;;28.80;96.90;;;;;;5094917;28;20070;-67
2022/06/23 12:51:06;;;;;;;3.53;1.80;;;28.80;96.10;;;;;;5095147;28;20620;-67
2022/06/23 12:54:11;;;;;;;2.85;1.80;;;28.90;96.40;;;;;;5095120;28;20058;-67
2022/06/23 12:56:51;;;;;;;2.58;1.65;;;28.90;95.20;;;;;;5094811;28;20044;-68
2022/06/23 12:59:28;;;;;;;2.92;1.70;;;28.90;94.90;;;;;;5094917;28;20054;-68
2022/06/23 13:02:11;;;;;;;2.75;1.88;;;29.00;94.80;;;;;;5095084;28;20104;-67
2022/06/23 13:04:55;;;;;;;2.33;1.83;;;29.00;94.60;;;;;;5094737;28;20089;-65
2022/06/23 13:07:28;;;;;;;3.30;1.90;;;29.00;94.60;;;;;;5094588;28;20088;-66
2022/06/23 13:10:04;;;;;;;2.97;1.90;;;29.00;94.90;;;;;;5093798;28;20108;-66
2022/06/23 13:12:39;;;;;;;3.10;1.90;;;29.00;94.80;;;;;;5094800;28;20059;-66
2022/06/23 13:15:31;;;;;;;2.67;1.95;;;29.00;94.30;;;;;;5094378;28;20052;-68
2022/06/23 13:18:14;;;;;;;3.60;2.10;;;29.00;94.00;;;;;;5066562;28;20059;-66
2022/06/23 13:20:55;;;;;;;3.25;1.95;;;29.10;94.10;;;;;;5065110;28;20135;-66
2022/06/23 13:23:31;;;;;;;2.97;1.90;;;29.10;93.50;;;;;;5082209;28;20388;-68
2022/06/23 13:26:13;;;;;;;2.83;1.77;;;29.10;93.60;;;;;;5081222;28;20561;-69
2022/06/23 13:28:40;;;;;;;3.65;1.90;;;29.20;94.00;;;;;;5081428;28;20138;-68
2022/06/23 13:31:21;;;;;;;3.05;1.80;;;29.30;93.40;;;;;;5083696;28;20044;-67
2022/06/23 13:33:57;;;;;;;2.90;1.98;;;29.30;93.40;;;;;;5082043;28;20052;-67
2022/06/23 13:36:57;;;;;;;3.47;1.52;;;29.30;93.00;;;;;;5083709;28;20076;-66
2022/06/23 13:39:35;;;;;;;3.08;1.80;;;29.40;93.40;;;;;;5077536;28;20435;-66
2022/06/23 13:42:10;;;;;;;3.25;1.70;;;29.40;93.10;;;;;;5068895;28;20152;-67
2022/06/23 13:44:54;;;;;;;2.50;1.80;;;29.40;92.60;;;;;;5094274;28;20044;-67
2022/06/23 13:47:40;;;;;;;2.53;1.73;;;29.40;92.80;;;;;;5093810;28;20545;-68
2022/06/23 13:50:33;;;;;;;2.40;1.60;;;29.50;92.10;;;;;;5094012;28;20048;-66
2022/06/23 13:53:24;;;;;;;3.47;1.77;;;29.50;92.30;;;;;;5093807;28;20044;-65
2022/06/23 13:55:56;;;;;;;2.67;1.83;;;29.50;92.10;;;;;;5039067;28;20059;-67
2022/06/23 13:58:55;;;;;;;3.67;1.85;;;29.50;92.40;;;;;;5090257;28;20052;-67
2022/06/23 14:01:34;;;;;;;2.85;1.73;;;29.50;91.70;;;;;;5090122;28;20048;-67
2022/06/23 14:04:29;;;;;;;3.58;1.80;;;29.60;92.10;;;;;;5089809;28;20050;-67
2022/06/23 14:07:17;;;;;;;3.30;1.83;;;29.60;92.20;;;;;;5091578;28;20468;-67
2022/06/23 14:09:53;;;;;;;2.63;1.60;;;29.60;91.70;;;;;;5089612;28;20036;-66